14th October 2018 | Melbourne, Victoria, Australia

Medibank Melbourne Marathon Festival (2018)

ASICS 10KM RUN: Male

Pos Name Net Time Category (Pos) Gender (Pos)
1 Harry Summers (#43623) 00:29:23 25-29 (1) Male  (1)
2 Jordan Williamsz (#40005) 00:30:18 Elite (1) Male  (2)
3 Paul Robinson (#40011) 00:30:24 Elite (2) Male  (3)
4 Tim Logan (#40003) 00:30:51 Elite (3) Male  (4)
5 Jaryd Clifford (#40008) 00:30:55 Elite (4) Male  (5)
6 Tim Norton (#43465) 00:31:04 30-34 (1) Male  (6)
7 Michael Kernahan (#41705) 00:31:54 20-24 (1) Male  (7)
8 Bouchaib Chefnaoui (#44306) 00:31:58 40-44 (1) Male  (8)
9 Frankie Conway (#40012) 00:32:18 Elite (5) Male  (9)
10 Archie Reid (#44021) 00:32:29 14-17 (1) Male  (10)
11 John Portwood (#41723) 00:32:38 20-24 (2) Male  (11)
12 Samuel Toll (#43030) 00:32:48 20-24 (3) Male  (12)
13 Jordan Tyler (#40015) 00:32:59 Elite (6) Male  (13)
14 Jack Murphy (#43055) 00:33:07 25-29 (2) Male  (14)
15 Brandon Dewar (#44031) 00:33:14 25-29 (3) Male  (15)
16 Denyan Claxton (#43469) 00:33:17 20-24 (4) Male  (16)
17 Alain Dutton (#42274) 00:33:38 20-24 (5) Male  (17)
18 Nathan Pearce (#41600) 00:33:53 20-24 (6) Male  (18)
19 Michael Johnson (#52930) 00:33:56 35-39 (1) Male  (19)
20 Grant Simpson (#42636) 00:33:58 45-49 (1) Male  (20)
21 Blake Reardon (#44561) 00:34:03 25-29 (4) Male  (21)
22 Peter Dutton (#40925) 00:34:04 20-24 (7) Male  (22)
23 Thomas Wilson (#42029) 00:34:04 20-24 (8) Male  (23)
25 Jacob Grooby (#43640) 00:34:25 30-34 (2) Male  (24)
26 Jack Bullock (#41788) 00:34:32 20-24 (9) Male  (25)
27 Dean Ryan (#43701) 00:34:33 30-34 (3) Male  (26)
28 Sam Strutt (#43415) 00:34:40 25-29 (5) Male  (27)
30 Rob Capp (#43853) 00:34:46 18-19 (1) Male  (28)
31 Lachlan Higgs (#40922) 00:34:55 20-24 (10) Male  (29)
34 David Coward (#42019) 00:35:26 25-29 (6) Male  (30)
35 Clive Reekie (#43696) 00:35:31 25-29 (7) Male  (31)
36 Mark Thompson (#44072) 00:35:36 35-39 (2) Male  (32)
37 Jack Armstrong (#40224) 00:35:43 14-17 (2) Male  (33)
40 Tynan Mims (#42642) 00:36:05 14-17 (3) Male  (34)
41 Matthew Carroll (#43753) 00:36:06 30-34 (4) Male  (35)
42 Liam Werrett (#43438) 00:36:15 25-29 (8) Male  (36)
43 Brendan Choo (#43470) 00:36:18 14-17 (4) Male  (37)
45 Paul Ashmore (#42207) 00:36:27 40-44 (2) Male  (38)
46 John Charles (#42347) 00:36:28 35-39 (3) Male  (39)
48 Darren Templeton (#43374) 00:36:41 45-49 (2) Male  (40)
49 Anthony Paige (#41998) 00:36:42 35-39 (4) Male  (41)
50 Logan Janetzki (#43048) 00:36:50 14-17 (5) Male  (42)
51 Adam Holy (#44468) 00:36:53 25-29 (9) Male  (43)
53 Simon Hanns (#43481) 00:37:00 25-29 (10) Male  (44)
54 Christopher Sutton (#40732) 00:37:02 14-17 (6) Male  (45)
55 James Ham (#40668) 00:37:02 14-17 (7) Male  (46)
56 Craig Jeffrey (#41480) 00:37:08 45-49 (3) Male  (47)
57 Joji Mori (#42037) 00:37:11 35-39 (5) Male  (48)
58 Jonathon Little (#42074) 00:37:12 30-34 (5) Male  (49)
59 Matt Mccauley (#40815) 00:37:12 30-34 (6) Male  (50)